Weather at Timmins/Victor M. Power

Public forecast

Using degrees Celsius for public forecast. Weather courtesy of forecast.io.

Current aviation weather report (METAR) for Timmins/Victor M. Power

Retrieved 2021/09/18 15:00 UTC (1 hour ago):

CYTS 181500Z VRB02KT 15SM FEW170 BKN240 11/07 A3025 RMK AC1CI5 SLP252

Aviation forecast (TAF) for Timmins/Victor M. Power

Retrieved 2021/09/18 14:39 UTC (1 hour ago):

TAF CYTS 181338Z 1814/1902 27006KT P6SM FEW180 BECMG 1900/1902 16005KT RMK NXT FCST BY 182000Z